RYR85MR LOWW-LPPT
Flight info
| Callsign | RYR85MR |
|---|---|
| Flight time | N/A |
| Altitude | 34000 |
| Route | OSPEN DCT ABRUK DCT SETAL DCT DETSA/N0446F370 DCT GEKBA DCT VAMTU DCT KOLON DCT GANGU DCT PADKO DCT DIVKO DCT MAMES DCT BISBA DCT BGR DCT NENDA DCT BCN DCT ANTON DCT XIKEN DCT OSLAP DCT SALAS DCT RAMON DCT NEXAS DCT DISVU DCT ADUXO N975 CJN/N0340F130 N975 PALIO DCT AKOKI DCT GOTOR DCT TLD DCT NATPA DCT MELON DCT CCS DCT ELVAR DCT UPULO |
| Aircraft | A320/M-SDE3FGHIRWY/LB1 |
Departure
| Time | 2026-04-30 08:22 |
|---|---|
| Airport | Vienna International Airport (LOWW) |
Arrival
| Time | N/A |
|---|---|
| Airport | Lisbon Humberto Delgado Airport (LPPT) |
| Time | Latitude | Longitude | Altitude | Speed | Heading |
|---|---|---|---|---|---|
| 2026-04-30 07:49 | 48.12088 | 16.55661 | 614 ft | 0 kts | 116° |
| 2026-04-30 08:13 | 48.12094 | 16.55639 | 620 ft | 3 kts | 116° |
| 2026-04-30 08:13 | 48.12102 | 16.55615 | 616 ft | 3 kts | 125° |
| 2026-04-30 08:13 | 48.12114 | 16.55595 | 624 ft | 3 kts | 155° |
| 2026-04-30 08:14 | 48.12126 | 16.55588 | 618 ft | 2 kts | 205° |
| 2026-04-30 08:14 | 48.12110 | 16.55579 | 624 ft | 2 kts | 199° |
| 2026-04-30 08:14 | 48.12103 | 16.55573 | 619 ft | 1 kts | 205° |
| 2026-04-30 08:14 | 48.12094 | 16.55567 | 614 ft | 2 kts | 206° |
| 2026-04-30 08:15 | 48.12091 | 16.55564 | 620 ft | 0 kts | 207° |
| 2026-04-30 08:16 | 48.12089 | 16.55563 | 619 ft | 1 kts | 207° |
| 2026-04-30 08:16 | 48.12069 | 16.55548 | 609 ft | 5 kts | 206° |
| 2026-04-30 08:16 | 48.12028 | 16.55519 | 617 ft | 8 kts | 205° |
| 2026-04-30 08:16 | 48.11971 | 16.55478 | 609 ft | 10 kts | 205° |
| 2026-04-30 08:17 | 48.11898 | 16.55450 | 617 ft | 12 kts | 158° |
| 2026-04-30 08:17 | 48.11857 | 16.55566 | 615 ft | 14 kts | 116° |
| 2026-04-30 08:17 | 48.11811 | 16.55709 | 616 ft | 17 kts | 116° |
| 2026-04-30 08:17 | 48.11757 | 16.55875 | 619 ft | 19 kts | 116° |
| 2026-04-30 08:18 | 48.11706 | 16.56031 | 609 ft | 18 kts | 116° |
| 2026-04-30 08:18 | 48.11649 | 16.56206 | 613 ft | 20 kts | 116° |
| 2026-04-30 08:18 | 48.11588 | 16.56392 | 609 ft | 18 kts | 116° |
| 2026-04-30 08:18 | 48.11530 | 16.56571 | 618 ft | 19 kts | 116° |
| 2026-04-30 08:19 | 48.11468 | 16.56761 | 618 ft | 21 kts | 116° |
| 2026-04-30 08:19 | 48.11405 | 16.56956 | 616 ft | 19 kts | 115° |
| 2026-04-30 08:19 | 48.11344 | 16.57146 | 614 ft | 21 kts | 117° |
| 2026-04-30 08:19 | 48.11276 | 16.57351 | 611 ft | 22 kts | 117° |
| 2026-04-30 08:20 | 48.11215 | 16.57539 | 611 ft | 18 kts | 116° |
| 2026-04-30 08:20 | 48.11123 | 16.57576 | 619 ft | 17 kts | 220° |
| 2026-04-30 08:20 | 48.11028 | 16.57491 | 609 ft | 15 kts | 206° |
| 2026-04-30 08:20 | 48.10965 | 16.57382 | 611 ft | 16 kts | 280° |
| 2026-04-30 08:21 | 48.11028 | 16.57183 | 619 ft | 42 kts | 297° |
| 2026-04-30 08:21 | 48.11258 | 16.56484 | 620 ft | 105 kts | 296° |
| 2026-04-30 08:21 | 48.11656 | 16.55264 | 622 ft | 153 kts | 296° |
| 2026-04-30 08:21 | 48.12089 | 16.53736 | 1036 ft | 163 kts | 286° |
| 2026-04-30 08:22 | 48.11923 | 16.52026 | 1707 ft | 175 kts | 241° |
| 2026-04-30 08:22 | 48.11013 | 16.50820 | 2380 ft | 179 kts | 210° |
| 2026-04-30 08:22 | 48.09918 | 16.49766 | 2782 ft | 198 kts | 216° |
| 2026-04-30 08:22 | 48.08742 | 16.48491 | 3094 ft | 219 kts | 218° |
| 2026-04-30 08:23 | 48.07509 | 16.47100 | 3761 ft | 224 kts | 220° |
| 2026-04-30 08:23 | 48.06272 | 16.45519 | 4233 ft | 246 kts | 222° |
| 2026-04-30 08:23 | 48.04928 | 16.43727 | 4685 ft | 269 kts | 222° |
| 2026-04-30 08:23 | 48.03510 | 16.41828 | 5519 ft | 277 kts | 223° |
| 2026-04-30 08:24 | 48.02057 | 16.39896 | 6398 ft | 282 kts | 222° |
| 2026-04-30 08:24 | 48.00577 | 16.37944 | 7266 ft | 287 kts | 221° |
| 2026-04-30 08:24 | 47.99066 | 16.35967 | 8102 ft | 291 kts | 221° |
| 2026-04-30 08:24 | 47.97532 | 16.33965 | 8930 ft | 295 kts | 221° |
| 2026-04-30 08:25 | 47.95988 | 16.31914 | 9758 ft | 300 kts | 226° |
| 2026-04-30 08:25 | 47.94575 | 16.29584 | 10472 ft | 308 kts | 229° |
| 2026-04-30 08:25 | 47.93107 | 16.27113 | 10693 ft | 331 kts | 229° |
| 2026-04-30 08:25 | 47.91523 | 16.24453 | 10969 ft | 350 kts | 229° |
| 2026-04-30 08:26 | 47.89892 | 16.21724 | 11591 ft | 356 kts | 229° |